createdAt,value
2018-06-11T00:00:00.144Z,19.61
2018-06-11T00:01:00.130Z,19.65
2018-06-11T00:02:00.113Z,19.65
2018-06-11T00:03:00.102Z,19.63
2018-06-11T00:04:00.088Z,19.51
2018-06-11T00:05:00.075Z,19.47
2018-06-11T00:06:00.060Z,19.46
2018-06-11T00:07:00.047Z,19.43
2018-06-11T00:08:00.039Z,19.39
2018-06-11T00:09:00.018Z,19.44
2018-06-11T00:10:00.024Z,19.43
2018-06-11T00:10:59.987Z,19.47
2018-06-11T00:11:59.974Z,19.46
2018-06-11T00:12:59.960Z,19.43
2018-06-11T00:13:59.995Z,19.46
2018-06-11T00:14:59.937Z,19.50
2018-06-11T00:15:59.919Z,19.43
2018-06-11T00:16:59.904Z,19.56
2018-06-11T00:17:59.894Z,19.48
2018-06-11T00:18:59.877Z,19.47
2018-06-11T00:19:59.863Z,19.54
2018-06-11T00:20:59.849Z,19.47
2018-06-11T00:21:59.833Z,19.44
2018-06-11T00:22:59.845Z,19.47
2018-06-11T00:23:59.805Z,19.47
2018-06-11T00:24:59.795Z,19.50
2018-06-11T00:25:59.779Z,19.32
2018-06-11T00:26:59.763Z,19.48
2018-06-11T00:27:59.752Z,19.29
2018-06-11T00:28:59.736Z,19.46
2018-06-11T00:29:59.722Z,19.44
2018-06-11T00:30:59.705Z,19.39
2018-06-11T00:31:59.694Z,19.44
2018-06-11T00:32:59.679Z,19.36
2018-06-11T00:33:59.663Z,19.36
2018-06-11T00:34:59.651Z,19.29
2018-06-11T00:35:59.635Z,19.32
2018-06-11T00:36:59.621Z,19.18
2018-06-11T00:37:59.615Z,19.22
2018-06-11T00:38:59.592Z,19.06
2018-06-11T00:39:59.580Z,18.99
2018-06-11T00:40:59.563Z,19.04
2018-06-11T00:41:59.550Z,18.95
2018-06-11T00:42:59.536Z,18.92
2018-06-11T00:43:59.522Z,18.95
2018-06-11T00:44:59.508Z,18.85
2018-06-11T00:45:59.497Z,18.87
2018-06-11T00:46:59.477Z,18.88
2018-06-11T00:47:59.464Z,18.98
2018-06-11T00:48:59.451Z,18.99
2018-06-11T00:49:59.435Z,18.99
2018-06-11T00:50:59.421Z,19.00
2018-06-11T00:51:59.407Z,19.00
2018-06-11T00:52:59.392Z,18.95
2018-06-11T00:53:59.378Z,18.91
2018-06-11T00:54:59.366Z,19.04
2018-06-11T00:55:59.348Z,18.94
2018-06-11T00:56:59.340Z,18.87
2018-06-11T00:57:59.321Z,18.90
2018-06-11T00:58:59.305Z,18.95
2018-06-11T00:59:59.292Z,19.02
2018-06-11T01:00:59.282Z,18.94
2018-06-11T01:01:59.263Z,18.87
2018-06-11T01:02:59.254Z,18.88
2018-06-11T01:03:59.235Z,18.80
2018-06-11T01:04:59.220Z,18.80
2018-06-11T01:05:59.207Z,18.78
2018-06-11T01:06:59.247Z,18.72
2018-06-11T01:07:59.177Z,18.70
2018-06-11T01:08:59.183Z,18.69
2018-06-11T01:09:59.200Z,18.69
2018-06-11T01:10:59.136Z,18.72
2018-06-11T01:11:59.121Z,18.69
2018-06-11T01:12:59.107Z,18.67
2018-06-11T01:13:59.096Z,18.70
2018-06-11T01:14:59.079Z,18.65
2018-06-11T01:15:59.062Z,18.63
2018-06-11T01:16:59.048Z,18.72
2018-06-11T01:17:59.031Z,18.67
2018-06-11T01:18:59.023Z,18.73
2018-06-11T01:19:59.003Z,18.70
2018-06-11T01:20:58.992Z,18.73
2018-06-11T01:21:58.975Z,18.72
2018-06-11T01:22:58.961Z,18.69
2018-06-11T01:23:58.948Z,18.72
2018-06-11T01:24:58.932Z,18.70
2018-06-11T01:25:58.920Z,18.75
2018-06-11T01:26:58.903Z,18.80
2018-06-11T01:27:58.894Z,18.73
2018-06-11T01:28:58.876Z,18.76
2018-06-11T01:29:58.860Z,18.78
2018-06-11T01:30:58.846Z,18.78
2018-06-11T01:31:58.830Z,18.72
2018-06-11T01:32:58.819Z,18.67
2018-06-11T01:33:58.801Z,18.70
2018-06-11T01:34:58.786Z,18.70
2018-06-11T01:35:58.776Z,18.70
2018-06-11T01:36:58.758Z,18.67
2018-06-11T01:37:58.745Z,18.57
2018-06-11T01:38:58.731Z,18.67
2018-06-11T01:39:58.717Z,18.62
2018-06-11T01:40:58.711Z,18.67
2018-06-11T01:41:58.684Z,18.70
2018-06-11T01:42:58.672Z,18.78
2018-06-11T01:43:58.656Z,18.82
2018-06-11T01:44:58.641Z,18.81
2018-06-11T01:45:58.627Z,18.69
2018-06-11T01:46:58.613Z,18.75
2018-06-11T01:47:58.599Z,18.69
2018-06-11T01:48:58.592Z,18.60
2018-06-11T01:49:58.575Z,18.65
2018-06-11T01:50:58.559Z,18.60
2018-06-11T01:51:58.541Z,18.66
2018-06-11T01:52:58.527Z,18.62
2018-06-11T01:53:58.510Z,18.67
2018-06-11T01:54:58.496Z,18.66
2018-06-11T01:55:58.484Z,18.70
2018-06-11T01:56:58.470Z,18.60
2018-06-11T01:57:58.451Z,18.60
2018-06-11T01:58:58.437Z,18.63
2018-06-11T01:59:58.423Z,18.57
2018-06-11T02:00:58.413Z,18.58
2018-06-11T02:01:58.396Z,18.57
2018-06-11T02:02:58.381Z,18.54
2018-06-11T02:03:58.368Z,18.47
2018-06-11T02:04:58.355Z,18.48
2018-06-11T02:05:58.339Z,18.51
2018-06-11T02:06:58.320Z,18.50
2018-06-11T02:07:58.306Z,18.44
2018-06-11T02:08:58.295Z,18.45
2018-06-11T02:09:58.276Z,18.44
2018-06-11T02:10:58.264Z,18.48
2018-06-11T02:11:58.251Z,18.45
2018-06-11T02:12:58.239Z,18.42
2018-06-11T02:13:58.223Z,18.35
2018-06-11T02:14:58.207Z,18.41
2018-06-11T02:15:58.196Z,18.50
2018-06-11T02:16:58.181Z,18.36
2018-06-11T02:17:58.163Z,18.36
2018-06-11T02:18:58.144Z,18.50
2018-06-11T02:19:58.129Z,18.44
2018-06-11T02:20:58.117Z,18.39
2018-06-11T02:21:58.131Z,18.35
2018-06-11T02:22:58.085Z,18.42
2018-06-11T02:23:58.070Z,18.36
2018-06-11T02:24:58.056Z,18.41
2018-06-11T02:25:58.043Z,18.36
2018-06-11T02:26:58.035Z,18.33
2018-06-11T02:27:58.016Z,18.26
2018-06-11T02:28:57.997Z,18.39
2018-06-11T02:29:57.987Z,18.36
2018-06-11T02:30:57.976Z,18.33
2018-06-11T02:31:57.962Z,18.39
2018-06-11T02:32:57.945Z,18.33
2018-06-11T02:33:57.940Z,18.41
2018-06-11T02:34:57.912Z,18.37
2018-06-11T02:35:57.897Z,18.41
2018-06-11T02:36:57.890Z,18.35
2018-06-11T02:37:57.867Z,18.41
2018-06-11T02:38:57.850Z,18.37
2018-06-11T02:39:57.841Z,18.36
2018-06-11T02:40:57.829Z,18.39
2018-06-11T02:41:57.804Z,18.39
2018-06-11T02:42:57.789Z,18.27
2018-06-11T02:43:57.781Z,18.27
2018-06-11T02:44:57.762Z,18.45
2018-06-11T02:45:57.746Z,18.36
2018-06-11T02:46:57.731Z,18.37
2018-06-11T02:47:57.723Z,18.39
2018-06-11T02:48:57.701Z,18.35
2018-06-11T02:49:57.687Z,18.33
2018-06-11T02:50:57.673Z,18.33
2018-06-11T02:51:57.659Z,18.37
2018-06-11T02:52:57.645Z,18.33
2018-06-11T02:53:57.629Z,18.36
2018-06-11T02:54:57.613Z,18.32
2018-06-11T02:55:57.598Z,18.33
2018-06-11T02:56:57.584Z,18.50
2018-06-11T02:57:57.572Z,18.44
2018-06-11T02:58:57.553Z,18.30
2018-06-11T02:59:57.542Z,18.37
2018-06-11T03:00:57.527Z,18.37
2018-06-11T03:01:57.509Z,18.33
2018-06-11T03:02:57.494Z,18.33
2018-06-11T03:03:57.486Z,18.33
2018-06-11T03:04:57.464Z,18.35
2018-06-11T03:05:57.454Z,18.35
2018-06-11T03:06:57.435Z,18.35
2018-06-11T03:07:57.421Z,18.37
2018-06-11T03:08:57.409Z,18.27
2018-06-11T03:09:57.390Z,18.42
2018-06-11T03:10:57.376Z,18.41
2018-06-11T03:11:57.359Z,18.32
2018-06-11T03:12:57.347Z,18.33
2018-06-11T03:13:57.331Z,18.36
2018-06-11T03:14:57.315Z,18.37
2018-06-11T03:15:57.302Z,18.35
2018-06-11T03:16:57.286Z,18.29
2018-06-11T03:17:57.271Z,18.30
2018-06-11T03:18:57.258Z,18.26
2018-06-11T03:19:57.248Z,18.27
2018-06-11T03:20:57.227Z,18.30
2018-06-11T03:21:57.211Z,18.26
2018-06-11T03:22:57.198Z,18.30
2018-06-11T03:23:57.182Z,18.30
2018-06-11T03:24:57.170Z,18.27
2018-06-11T03:25:57.156Z,18.26
2018-06-11T03:26:57.138Z,18.27
2018-06-11T03:27:57.123Z,18.29
2018-06-11T03:28:57.110Z,18.27
2018-06-11T03:29:57.092Z,18.27
2018-06-11T03:30:57.077Z,18.29
2018-06-11T03:31:57.064Z,18.27
2018-06-11T03:32:57.053Z,18.30
2018-06-11T03:33:57.034Z,18.27
2018-06-11T03:34:57.021Z,18.36
2018-06-11T03:35:57.003Z,18.37
2018-06-11T03:36:56.988Z,18.33
2018-06-11T03:37:56.973Z,18.26
2018-06-11T03:38:56.957Z,18.26
2018-06-11T03:39:56.945Z,18.27
2018-06-11T03:40:56.930Z,18.35
2018-06-11T03:41:56.912Z,18.37
2018-06-11T03:42:56.898Z,18.42
2018-06-11T03:43:56.886Z,18.37
2018-06-11T03:44:56.869Z,18.36
2018-06-11T03:45:56.856Z,18.44
2018-06-11T03:46:56.839Z,18.41
2018-06-11T03:47:56.824Z,18.37
2018-06-11T03:48:56.809Z,18.41
2018-06-11T03:49:56.793Z,18.48
2018-06-11T03:50:56.779Z,18.47
2018-06-11T03:51:56.765Z,18.51
2018-06-11T03:52:56.752Z,18.63
2018-06-11T03:53:56.733Z,18.63
2018-06-11T03:54:56.723Z,18.66
2018-06-11T03:55:56.705Z,18.67
2018-06-11T03:56:56.694Z,18.62
2018-06-11T03:57:56.678Z,18.66
2018-06-11T03:58:56.661Z,18.75
2018-06-11T03:59:56.651Z,18.69
2018-06-11T04:00:56.634Z,18.81
2018-06-11T04:03:04.967Z,18.87
2018-06-11T04:04:04.879Z,18.87
2018-06-11T04:05:04.855Z,18.92
2018-06-11T04:06:04.840Z,18.84
2018-06-11T04:07:04.824Z,18.92
2018-06-11T04:08:04.809Z,18.81
2018-06-11T04:09:04.794Z,18.81
2018-06-11T04:10:04.779Z,18.90
2018-06-11T04:11:04.840Z,18.91
2018-06-11T04:12:04.751Z,18.99
2018-06-11T04:13:04.736Z,18.95
2018-06-11T04:14:04.721Z,18.99
2018-06-11T04:15:04.706Z,19.00
2018-06-11T04:16:04.691Z,19.13
2018-06-11T04:17:04.676Z,19.06
2018-06-11T04:18:04.664Z,19.14
2018-06-11T04:19:04.648Z,19.14
2018-06-11T04:20:04.633Z,19.10
2018-06-11T04:21:04.625Z,19.18
2018-06-11T04:22:04.604Z,19.18
2018-06-11T04:23:04.591Z,19.21
2018-06-11T04:24:04.583Z,19.29
2018-06-11T04:25:04.561Z,19.29
2018-06-11T04:26:04.546Z,19.29
2018-06-11T04:27:04.533Z,19.23
2018-06-11T04:28:04.517Z,19.28
2018-06-11T04:29:04.505Z,19.32
2018-06-11T04:30:04.490Z,19.33
2018-06-11T04:31:04.479Z,19.39
2018-06-11T04:32:04.459Z,19.32
2018-06-11T04:33:04.445Z,19.33
2018-06-11T04:34:04.435Z,19.36
2018-06-11T04:35:04.417Z,19.41
2018-06-11T04:36:04.403Z,19.39
2018-06-11T04:37:04.389Z,19.44
2018-06-11T04:38:04.372Z,19.40
2018-06-11T04:39:04.359Z,19.43
2018-06-11T04:40:04.347Z,19.41
2018-06-11T04:41:04.333Z,19.46
2018-06-11T04:42:04.315Z,19.41
2018-06-11T04:43:04.303Z,19.48
2018-06-11T04:44:04.288Z,19.39
2018-06-11T04:45:04.275Z,19.47
2018-06-11T04:46:04.258Z,19.48
2018-06-11T04:47:04.249Z,19.47
2018-06-11T04:48:04.231Z,19.51
2018-06-11T04:49:04.218Z,19.51
2018-06-11T04:50:04.202Z,19.55
2018-06-11T04:51:04.187Z,19.61
2018-06-11T04:52:04.173Z,19.56
2018-06-11T04:53:04.161Z,19.56
2018-06-11T04:54:04.152Z,19.61
2018-06-11T04:55:04.179Z,19.61
2018-06-11T04:56:04.116Z,19.59
2018-06-11T04:57:04.107Z,19.58
2018-06-11T04:58:04.089Z,19.54
2018-06-11T04:59:04.075Z,19.59
2018-06-11T05:00:04.060Z,19.44
2018-06-11T05:01:04.045Z,19.48
2018-06-11T05:02:04.063Z,19.40
2018-06-11T05:03:04.018Z,19.50
2018-06-11T05:04:04.007Z,19.66
2018-06-11T05:05:03.991Z,19.65
2018-06-11T05:06:03.975Z,19.69
2018-06-11T05:07:03.965Z,19.63
2018-06-11T05:08:03.996Z,19.63
2018-06-11T05:09:03.933Z,19.66
2018-06-11T05:10:03.922Z,19.77
2018-06-11T05:11:03.907Z,19.74
2018-06-11T05:12:03.904Z,19.77
2018-06-11T05:13:03.877Z,19.71
2018-06-11T05:14:03.874Z,19.65
2018-06-11T05:15:03.847Z,19.56
2018-06-11T05:16:03.837Z,19.63
2018-06-11T05:17:03.825Z,19.58
2018-06-11T05:18:03.813Z,19.61
2018-06-11T05:19:03.792Z,19.58
2018-06-11T05:20:03.825Z,19.63
2018-06-11T05:21:03.763Z,19.59
2018-06-11T05:22:03.752Z,19.69
2018-06-11T05:23:03.739Z,19.69
2018-06-11T05:24:03.724Z,19.71
2018-06-11T05:25:03.714Z,19.74
2018-06-11T05:26:03.700Z,19.81
2018-06-11T05:27:03.683Z,19.87
2018-06-11T05:28:03.666Z,19.92
2018-06-11T05:29:03.655Z,19.95
2018-06-11T05:30:03.642Z,19.84
2018-06-11T05:31:03.624Z,19.96
2018-06-11T05:32:03.612Z,19.91
2018-06-11T05:33:03.597Z,20.02
2018-06-11T05:34:03.584Z,20.11
2018-06-11T05:35:03.571Z,20.08
2018-06-11T05:36:03.557Z,20.21
2018-06-11T05:37:03.542Z,20.20
2018-06-11T05:38:03.552Z,20.20
2018-06-11T05:39:03.518Z,20.21
2018-06-11T05:40:03.506Z,20.31
2018-06-11T05:41:03.488Z,20.24
2018-06-11T05:42:03.475Z,20.35
2018-06-11T05:43:03.461Z,20.39
2018-06-11T05:44:03.447Z,20.33
2018-06-11T05:45:03.441Z,20.36
2018-06-11T05:46:03.425Z,20.36
2018-06-11T05:47:03.405Z,20.36
2018-06-11T05:48:03.396Z,20.33
2018-06-11T05:49:03.382Z,20.32
2018-06-11T05:50:03.366Z,20.26
2018-06-11T05:51:03.354Z,20.41
2018-06-11T05:52:03.344Z,20.39
2018-06-11T05:53:03.325Z,20.38
2018-06-11T05:54:03.312Z,20.32
2018-06-11T05:55:03.299Z,20.26
2018-06-11T05:56:03.291Z,20.41
2018-06-11T05:57:03.273Z,20.36
2018-06-11T05:58:03.262Z,20.51
2018-06-11T05:59:03.249Z,20.54
2018-06-11T06:00:03.230Z,20.58
2018-06-11T06:01:03.218Z,20.66
2018-06-11T06:02:03.206Z,20.67
2018-06-11T06:03:03.191Z,20.77
2018-06-11T06:04:03.178Z,20.80
2018-06-11T06:05:03.167Z,20.77
2018-06-11T06:06:03.152Z,20.87
2018-06-11T06:07:03.137Z,20.88
2018-06-11T06:08:03.124Z,20.99
2018-06-11T06:09:03.111Z,20.97
2018-06-11T06:10:03.097Z,20.99
2018-06-11T06:11:03.083Z,21.03
2018-06-11T06:12:03.073Z,20.97
2018-06-11T06:13:03.057Z,21.01
2018-06-11T06:14:03.045Z,21.04
2018-06-11T06:15:03.034Z,21.10
2018-06-11T06:16:03.018Z,21.19
2018-06-11T06:17:03.005Z,21.24
2018-06-11T06:18:03.000Z,21.13
2018-06-11T06:19:02.979Z,21.17
2018-06-11T06:20:02.964Z,21.07
2018-06-11T06:21:02.955Z,21.10
2018-06-11T06:22:02.943Z,21.14
2018-06-11T06:23:02.927Z,21.17
2018-06-11T06:24:02.913Z,21.10
2018-06-11T06:25:02.908Z,21.16
2018-06-11T06:26:02.891Z,21.14
2018-06-11T06:27:02.911Z,21.16
2018-06-11T06:28:02.865Z,21.17
2018-06-11T06:29:02.849Z,21.13
2018-06-11T06:30:02.843Z,21.12
2018-06-11T06:31:02.824Z,21.14
2018-06-11T06:32:02.816Z,21.16
2018-06-11T06:33:02.797Z,21.13
2018-06-11T06:34:02.817Z,21.27
2018-06-11T06:35:02.772Z,21.22
2018-06-11T06:36:02.756Z,21.25
2018-06-11T06:37:02.745Z,21.35
2018-06-11T06:38:02.734Z,21.28
2018-06-11T06:39:02.721Z,21.29
2018-06-11T06:40:02.708Z,21.24
2018-06-11T06:41:02.694Z,21.22
2018-06-11T06:42:02.684Z,21.29
2018-06-11T06:43:02.673Z,21.29
2018-06-11T06:44:02.663Z,21.35
2018-06-11T06:45:02.645Z,21.37
2018-06-11T06:46:02.631Z,21.38
2018-06-11T06:47:02.620Z,21.43
2018-06-11T06:48:02.603Z,21.49
2018-06-11T06:49:02.591Z,21.61
2018-06-11T06:50:02.580Z,21.67
2018-06-11T06:51:02.564Z,21.69
2018-06-11T06:52:02.551Z,21.67
2018-06-11T06:53:02.541Z,21.84
2018-06-11T06:54:02.529Z,21.84
2018-06-11T06:55:02.516Z,21.84
2018-06-11T06:56:02.502Z,21.88
2018-06-11T06:57:02.490Z,21.91
2018-06-11T06:58:02.476Z,21.90
2018-06-11T06:59:02.466Z,21.90
2018-06-11T07:00:02.454Z,21.96
2018-06-11T07:01:02.442Z,21.90
2018-06-11T07:02:02.431Z,21.94
2018-06-11T07:03:02.415Z,21.92
2018-06-11T07:04:02.405Z,21.99
2018-06-11T07:05:02.390Z,22.02
2018-06-11T07:06:02.383Z,21.96
2018-06-11T07:07:02.367Z,22.05
2018-06-11T07:08:02.399Z,22.03
2018-06-11T07:09:02.342Z,22.14
2018-06-11T07:10:02.333Z,22.17
2018-06-11T07:11:02.317Z,22.22
2018-06-11T07:12:02.305Z,22.22
2018-06-11T07:13:02.293Z,22.42
2018-06-11T07:14:02.283Z,22.45
2018-06-11T07:15:02.267Z,22.51
2018-06-11T07:16:02.269Z,22.60
2018-06-11T07:17:02.244Z,22.55
2018-06-11T07:18:02.234Z,22.57
2018-06-11T07:19:02.227Z,22.73
2018-06-11T07:20:02.208Z,22.82
2018-06-11T07:21:02.195Z,22.85
2018-06-11T07:22:02.187Z,22.97
2018-06-11T07:23:02.171Z,22.80
2018-06-11T07:24:02.167Z,22.77
2018-06-11T07:25:02.151Z,22.91
2018-06-11T07:26:02.139Z,22.90
2018-06-11T07:27:02.134Z,22.92
2018-06-11T07:28:02.113Z,22.83
2018-06-11T07:29:02.102Z,22.79
2018-06-11T07:30:02.090Z,22.77
2018-06-11T07:31:02.079Z,22.77
2018-06-11T07:32:02.066Z,22.75
2018-06-11T07:33:02.056Z,22.72
2018-06-11T07:34:02.097Z,22.72
2018-06-11T07:35:02.062Z,22.68
2018-06-11T07:36:02.021Z,22.67
2018-06-11T07:37:02.007Z,22.67
2018-06-11T07:38:01.996Z,22.80
2018-06-11T07:39:01.987Z,22.82
2018-06-11T07:40:01.979Z,23.02
2018-06-11T07:41:01.999Z,23.09
2018-06-11T07:42:01.949Z,23.28
2018-06-11T07:43:01.938Z,23.38
2018-06-11T07:44:01.927Z,23.42
2018-06-11T07:45:01.918Z,23.43
2018-06-11T07:46:01.903Z,23.39
2018-06-11T07:47:01.891Z,23.46
2018-06-11T07:48:01.904Z,23.46
2018-06-11T07:49:01.871Z,23.55
2018-06-11T07:50:01.868Z,23.53
2018-06-11T07:51:01.850Z,23.68
2018-06-11T07:52:01.838Z,23.97
2018-06-11T07:53:01.827Z,23.97
2018-06-11T07:54:01.815Z,23.95
2018-06-11T07:55:01.812Z,24.02
2018-06-11T07:56:01.796Z,24.05
2018-06-11T07:57:01.788Z,24.00
2018-06-11T07:58:01.776Z,23.88
2018-06-11T07:59:01.763Z,23.87
2018-06-11T08:00:01.834Z,23.80
2018-06-11T08:01:01.739Z,23.79
2018-06-11T08:02:01.733Z,23.73
2018-06-11T08:03:01.717Z,23.70
2018-06-11T08:04:01.710Z,23.68
2018-06-11T08:05:01.695Z,24.49
2018-06-11T08:06:01.685Z,25.15
2018-06-11T08:07:01.676Z,25.42
2018-06-11T08:08:01.664Z,25.87
2018-06-11T08:09:01.656Z,26.32
2018-06-11T08:10:01.641Z,26.69
2018-06-11T08:11:01.633Z,26.77
2018-06-11T08:12:01.619Z,27.41
2018-06-11T08:13:01.610Z,27.19
2018-06-11T08:14:01.601Z,26.81
2018-06-11T08:15:01.591Z,26.47
2018-06-11T08:16:01.579Z,26.25
2018-06-11T08:17:01.571Z,26.01
2018-06-11T08:18:01.559Z,25.88
2018-06-11T08:19:01.557Z,25.94
2018-06-11T08:20:01.540Z,25.94
2018-06-11T08:21:01.532Z,25.85
2018-06-11T08:22:01.522Z,25.72
2018-06-11T08:23:01.512Z,25.80
2018-06-11T08:24:01.500Z,25.92
2018-06-11T08:25:01.495Z,25.82
2018-06-11T08:26:01.488Z,25.99
2018-06-11T08:27:01.474Z,26.12
2018-06-11T08:28:01.465Z,26.33
2018-06-11T08:29:01.464Z,26.50
2018-06-11T08:30:01.447Z,26.66
2018-06-11T08:31:01.437Z,27.02
2018-06-11T08:32:01.430Z,27.13
2018-06-11T08:33:01.424Z,27.13
2018-06-11T08:34:01.414Z,27.12
2018-06-11T08:35:01.406Z,27.00
2018-06-11T08:36:01.407Z,27.17
2018-06-11T08:37:01.396Z,27.37
2018-06-11T08:38:01.380Z,27.67
2018-06-11T08:39:01.378Z,27.93
2018-06-11T08:40:01.366Z,28.19
2018-06-11T08:41:01.361Z,28.41
2018-06-11T08:42:01.353Z,28.62
2018-06-11T08:43:01.347Z,28.76
2018-06-11T08:44:01.339Z,28.95
2018-06-11T08:45:01.333Z,28.58
2018-06-11T08:46:01.326Z,28.43
2018-06-11T08:47:01.320Z,28.12
2018-06-11T08:48:01.313Z,27.63
2018-06-11T08:49:01.307Z,27.28
2018-06-11T08:50:01.346Z,27.03
2018-06-11T08:51:01.297Z,27.24
2018-06-11T08:52:01.290Z,27.40
2018-06-11T08:53:01.286Z,27.59
2018-06-11T08:54:01.280Z,27.49
2018-06-11T08:55:01.280Z,27.40
2018-06-11T08:56:01.264Z,27.66
2018-06-11T08:57:01.261Z,27.88
2018-06-11T08:58:01.252Z,28.00
2018-06-11T08:59:01.246Z,28.15
2018-06-11T09:00:01.290Z,28.30
2018-06-11T09:01:01.243Z,28.18
2018-06-11T09:02:01.229Z,28.19
2018-06-11T09:03:01.224Z,28.24
2018-06-11T09:04:01.216Z,28.25
2018-06-11T09:05:01.213Z,28.11
2018-06-11T09:06:01.209Z,27.94
2018-06-11T09:07:01.250Z,27.75
2018-06-11T09:08:01.193Z,27.81
2018-06-11T09:09:01.187Z,27.67
2018-06-11T09:10:01.181Z,27.78
2018-06-11T09:11:01.175Z,27.77
2018-06-11T09:12:01.177Z,27.55
2018-06-11T09:13:01.164Z,27.50
2018-06-11T09:14:01.159Z,27.84
2018-06-11T09:15:01.162Z,27.88
2018-06-11T09:16:01.143Z,28.21
2018-06-11T09:17:01.139Z,28.29
2018-06-11T09:18:01.160Z,28.59
2018-06-11T09:19:01.126Z,28.61
2018-06-11T09:20:01.120Z,28.36
2018-06-11T09:21:01.113Z,28.25
2018-06-11T09:22:01.109Z,28.11
2018-06-11T09:23:01.101Z,27.96
2018-06-11T09:24:01.096Z,27.87
2018-06-11T09:25:01.157Z,28.07
2018-06-11T09:26:01.083Z,28.24
2018-06-11T09:27:01.079Z,28.21
2018-06-11T09:28:01.069Z,28.44
2018-06-11T09:29:01.062Z,28.73
2018-06-11T09:30:01.061Z,28.96
2018-06-11T09:31:01.107Z,29.11
2018-06-11T09:32:01.046Z,29.52
2018-06-11T09:33:01.038Z,29.98
2018-06-11T09:34:01.035Z,30.23
2018-06-11T09:35:01.024Z,30.08
2018-06-11T09:36:01.023Z,29.86
2018-06-11T09:37:01.019Z,29.41
2018-06-11T09:38:01.011Z,29.05
2018-06-11T09:39:01.004Z,28.80
2018-06-11T09:40:00.999Z,28.25
2018-06-11T09:41:00.995Z,27.70
2018-06-11T09:42:00.989Z,27.79
2018-06-11T09:43:00.979Z,27.78
2018-06-11T09:44:01.064Z,27.43
2018-06-11T09:45:00.970Z,27.31
2018-06-11T09:46:00.961Z,27.41
2018-06-11T09:47:00.957Z,27.37
2018-06-11T09:48:00.950Z,27.36
2018-06-11T09:49:00.944Z,27.29
2018-06-11T09:50:00.941Z,27.37
2018-06-11T09:51:00.936Z,27.27
2018-06-11T09:52:00.928Z,27.14
2018-06-11T09:53:00.922Z,27.03
2018-06-11T09:54:00.919Z,27.04
2018-06-11T09:55:00.910Z,27.07
2018-06-11T09:56:00.900Z,27.00
2018-06-11T09:57:00.896Z,26.95
2018-06-11T09:58:00.890Z,26.87
2018-06-11T09:59:00.887Z,26.92
2018-06-11T10:00:00.875Z,26.87
2018-06-11T10:01:00.868Z,26.91
2018-06-11T10:02:00.861Z,26.95
2018-06-11T10:03:00.855Z,27.04
2018-06-11T10:04:00.848Z,27.28
2018-06-11T10:05:00.841Z,27.43
2018-06-11T10:06:00.834Z,27.41
2018-06-11T10:07:00.827Z,27.36
2018-06-11T10:08:00.820Z,27.40
2018-06-11T10:09:00.817Z,27.22
2018-06-11T10:10:00.817Z,27.04
2018-06-11T10:11:00.797Z,26.92
2018-06-11T10:12:00.793Z,26.67
2018-06-11T10:13:00.785Z,26.63
2018-06-11T10:14:00.778Z,26.60
2018-06-11T10:15:00.769Z,26.55
2018-06-11T10:16:00.764Z,26.55
2018-06-11T10:17:00.759Z,26.62
2018-06-11T10:18:00.750Z,26.67
2018-06-11T10:19:00.751Z,26.63
2018-06-11T10:20:00.734Z,26.62
2018-06-11T10:21:00.724Z,26.76
2018-06-11T10:22:00.717Z,26.87
2018-06-11T10:23:00.709Z,26.91
2018-06-11T10:24:00.703Z,27.00
2018-06-11T10:25:00.695Z,26.84
2018-06-11T10:26:00.697Z,26.85
2018-06-11T10:27:00.679Z,26.99
2018-06-11T10:28:00.674Z,26.81
2018-06-11T10:29:00.667Z,26.84
2018-06-11T10:30:00.657Z,26.73
2018-06-11T10:31:00.653Z,26.75
2018-06-11T10:32:00.641Z,26.70
2018-06-11T10:33:00.652Z,26.82
2018-06-11T10:34:00.630Z,26.87
2018-06-11T10:35:00.621Z,26.99
2018-06-11T10:36:00.619Z,27.02
2018-06-11T10:37:00.605Z,27.10
2018-06-11T10:38:00.597Z,27.09
2018-06-11T10:39:00.589Z,27.00
2018-06-11T10:40:00.582Z,26.91
2018-06-11T10:41:00.570Z,26.84
2018-06-11T10:42:00.566Z,26.82
2018-06-11T10:43:00.554Z,26.82
2018-06-11T10:44:00.550Z,26.77
2018-06-11T10:45:00.539Z,26.77
2018-06-11T10:46:00.534Z,26.67
2018-06-11T10:47:00.523Z,26.75
2018-06-11T10:48:00.517Z,26.85
2018-06-11T10:49:00.507Z,26.77
2018-06-11T10:50:00.504Z,26.99
2018-06-11T10:51:00.490Z,27.09
2018-06-11T10:52:00.483Z,27.04
2018-06-11T10:53:00.477Z,26.99
2018-06-11T10:54:00.468Z,27.04
2018-06-11T10:55:00.468Z,27.14
2018-06-11T10:56:00.452Z,27.03
2018-06-11T10:57:00.444Z,27.17
2018-06-11T10:58:00.489Z,27.13
2018-06-11T10:59:00.431Z,26.97
2018-06-11T11:00:00.421Z,27.12
2018-06-11T11:01:00.412Z,27.00
2018-06-11T11:02:00.403Z,27.17
2018-06-11T11:03:00.398Z,27.04
2018-06-11T11:04:00.387Z,27.02
2018-06-11T11:05:00.388Z,27.10
2018-06-11T11:06:00.371Z,27.14
2018-06-11T11:07:00.365Z,27.10
2018-06-11T11:08:00.355Z,27.00
2018-06-11T11:09:00.347Z,27.04
2018-06-11T11:10:00.340Z,27.07
2018-06-11T11:11:00.331Z,27.04
2018-06-11T11:12:00.324Z,27.06
2018-06-11T11:13:00.316Z,27.13
2018-06-11T11:14:00.310Z,27.13
2018-06-11T11:15:00.300Z,27.12
2018-06-11T11:16:00.292Z,27.00
2018-06-11T11:17:00.283Z,27.14
2018-06-11T11:18:00.275Z,27.27
2018-06-11T11:19:00.270Z,27.31
2018-06-11T11:20:00.258Z,27.43
2018-06-11T11:21:00.251Z,27.37
2018-06-11T11:22:00.244Z,27.32
2018-06-11T11:23:00.237Z,27.41
2018-06-11T11:24:00.249Z,27.44
2018-06-11T11:25:00.231Z,27.39
2018-06-11T11:26:00.209Z,27.40
2018-06-11T11:27:00.201Z,27.44
2018-06-11T11:28:00.197Z,27.51
2018-06-11T11:29:00.188Z,27.51
2018-06-11T11:30:00.195Z,27.51
2018-06-11T11:31:00.170Z,27.66
2018-06-11T11:32:00.163Z,27.77
2018-06-11T11:33:00.161Z,27.75
2018-06-11T11:34:00.153Z,27.72
2018-06-11T11:35:00.142Z,27.57
2018-06-11T11:36:00.130Z,27.75
2018-06-11T11:37:00.122Z,27.57
2018-06-11T11:38:00.118Z,27.62
2018-06-11T11:39:00.106Z,27.44
2018-06-11T11:40:00.108Z,27.44
2018-06-11T11:41:00.092Z,27.49
2018-06-11T11:42:00.087Z,27.57
2018-06-11T11:43:00.080Z,27.57
2018-06-11T11:44:00.090Z,27.57
2018-06-11T11:45:00.072Z,27.59
2018-06-11T11:46:00.057Z,27.65
2018-06-11T11:47:00.045Z,27.57
2018-06-11T11:48:00.042Z,27.62
2018-06-11T11:49:00.036Z,27.62
2018-06-11T11:50:00.033Z,27.75
2018-06-11T11:51:00.039Z,27.84
2018-06-11T11:52:00.019Z,27.82
2018-06-11T11:52:59.999Z,27.82
2018-06-11T11:53:59.993Z,27.87
2018-06-11T11:54:59.987Z,27.96
2018-06-11T11:55:59.977Z,28.14
2018-06-11T11:56:59.975Z,28.24
2018-06-11T11:57:59.968Z,28.34
2018-06-11T11:58:59.962Z,28.44
2018-06-11T11:59:59.950Z,28.49
2018-06-11T12:00:59.945Z,28.55
2018-06-11T12:01:59.944Z,28.73
2018-06-11T12:02:59.931Z,28.85
2018-06-11T12:03:59.926Z,29.15
2018-06-11T12:04:59.921Z,29.31
2018-06-11T12:05:59.921Z,29.76
2018-06-11T12:06:59.912Z,30.08
2018-06-11T12:07:59.912Z,30.54
2018-06-11T12:08:59.924Z,30.61
2018-06-11T12:09:59.897Z,30.94
2018-06-11T12:10:59.894Z,31.21
2018-06-11T12:11:59.889Z,31.48
2018-06-11T12:12:59.886Z,31.66
2018-06-11T12:13:59.881Z,31.78
2018-06-11T12:14:59.878Z,32.03
2018-06-11T12:15:59.883Z,32.13
2018-06-11T12:16:59.873Z,32.26
2018-06-11T12:17:59.869Z,32.32
2018-06-11T12:18:59.924Z,32.11
2018-06-11T12:19:59.868Z,31.99
2018-06-11T12:20:59.864Z,31.99
2018-06-11T12:21:59.859Z,32.10
2018-06-11T12:22:59.867Z,32.37
2018-06-11T12:23:59.860Z,32.44
2018-06-11T12:24:59.854Z,32.52
2018-06-11T12:25:59.856Z,32.41
2018-06-11T12:26:59.848Z,32.59
2018-06-11T12:27:59.857Z,32.55
2018-06-11T12:28:59.849Z,32.59
2018-06-11T12:29:59.843Z,32.69
2018-06-11T12:30:59.845Z,32.66
2018-06-11T12:31:59.839Z,32.69
2018-06-11T12:32:59.838Z,32.77
2018-06-11T12:33:59.835Z,32.67
2018-06-11T12:34:59.834Z,32.70
2018-06-11T12:35:59.830Z,32.75
2018-06-11T12:36:59.833Z,32.82
2018-06-11T12:37:59.828Z,32.63
2018-06-11T12:38:59.827Z,32.59
2018-06-11T12:39:59.827Z,32.56
2018-06-11T12:40:59.818Z,32.37
2018-06-11T12:41:59.819Z,32.33
2018-06-11T12:49:27.234Z,32.04
2018-06-11T12:50:27.234Z,31.89
2018-06-11T12:51:27.227Z,31.95
2018-06-11T12:52:27.227Z,31.96
2018-06-11T12:53:27.221Z,32.01
2018-06-11T12:54:27.214Z,32.03
2018-06-11T12:55:27.215Z,31.86
2018-06-11T12:56:27.212Z,31.96
2018-06-11T12:57:27.206Z,31.78
2018-06-11T12:58:27.201Z,31.84
2018-06-11T12:59:27.197Z,31.91